sensor_id;sensor_type;location;lat;lon;timestamp;P1;durP1;ratioP1;P2;durP2;ratioP2
7845;SDS011;3968;51.424;6.788;2022-08-21T00:00:43;10.00;;;4.85;;
7845;SDS011;3968;51.424;6.788;2022-08-21T00:03:10;10.30;;;5.38;;
7845;SDS011;3968;51.424;6.788;2022-08-21T00:05:38;11.95;;;5.57;;
7845;SDS011;3968;51.424;6.788;2022-08-21T00:08:07;9.93;;;4.90;;
7845;SDS011;3968;51.424;6.788;2022-08-21T00:10:33;13.23;;;5.43;;
7845;SDS011;3968;51.424;6.788;2022-08-21T00:13:00;9.35;;;5.05;;
7845;SDS011;3968;51.424;6.788;2022-08-21T00:15:28;10.25;;;5.03;;
7845;SDS011;3968;51.424;6.788;2022-08-21T00:17:55;11.05;;;5.03;;
7845;SDS011;3968;51.424;6.788;2022-08-21T00:20:22;15.25;;;5.38;;
7845;SDS011;3968;51.424;6.788;2022-08-21T00:22:48;8.07;;;4.97;;
7845;SDS011;3968;51.424;6.788;2022-08-21T00:25:15;8.80;;;5.25;;
7845;SDS011;3968;51.424;6.788;2022-08-21T00:27:42;9.13;;;5.75;;
7845;SDS011;3968;51.424;6.788;2022-08-21T00:30:08;10.07;;;5.43;;
7845;SDS011;3968;51.424;6.788;2022-08-21T00:32:36;11.38;;;5.55;;
7845;SDS011;3968;51.424;6.788;2022-08-21T00:35:03;8.07;;;5.38;;
7845;SDS011;3968;51.424;6.788;2022-08-21T00:37:31;12.55;;;5.97;;
7845;SDS011;3968;51.424;6.788;2022-08-21T00:39:56;11.85;;;5.35;;
7845;SDS011;3968;51.424;6.788;2022-08-21T00:42:22;9.20;;;5.65;;
7845;SDS011;3968;51.424;6.788;2022-08-21T00:44:48;10.15;;;5.30;;
7845;SDS011;3968;51.424;6.788;2022-08-21T00:47:15;9.85;;;5.47;;
7845;SDS011;3968;51.424;6.788;2022-08-21T00:49:41;8.90;;;5.60;;
7845;SDS011;3968;51.424;6.788;2022-08-21T00:52:09;8.57;;;5.00;;
7845;SDS011;3968;51.424;6.788;2022-08-21T00:54:39;10.75;;;5.55;;
7845;SDS011;3968;51.424;6.788;2022-08-21T00:57:09;11.00;;;5.53;;
7845;SDS011;3968;51.424;6.788;2022-08-21T00:59:39;8.70;;;5.43;;
7845;SDS011;3968;51.424;6.788;2022-08-21T01:02:08;13.00;;;6.30;;
7845;SDS011;3968;51.424;6.788;2022-08-21T01:04:35;9.73;;;5.22;;
7845;SDS011;3968;51.424;6.788;2022-08-21T01:07:01;14.80;;;6.00;;
7845;SDS011;3968;51.424;6.788;2022-08-21T01:09:27;13.15;;;6.25;;
7845;SDS011;3968;51.424;6.788;2022-08-21T01:11:53;13.27;;;6.17;;
7845;SDS011;3968;51.424;6.788;2022-08-21T01:14:19;12.23;;;6.17;;
7845;SDS011;3968;51.424;6.788;2022-08-21T01:16:46;9.00;;;5.65;;
7845;SDS011;3968;51.424;6.788;2022-08-21T01:19:14;10.57;;;6.10;;
7845;SDS011;3968;51.424;6.788;2022-08-21T01:21:42;13.93;;;6.13;;
7845;SDS011;3968;51.424;6.788;2022-08-21T01:24:08;9.77;;;5.50;;
7845;SDS011;3968;51.424;6.788;2022-08-21T01:26:34;12.63;;;6.67;;
7845;SDS011;3968;51.424;6.788;2022-08-21T01:29:09;11.50;;;7.10;;
7845;SDS011;3968;51.424;6.788;2022-08-21T01:31:40;9.80;;;5.93;;
7845;SDS011;3968;51.424;6.788;2022-08-21T01:34:06;12.33;;;6.63;;
7845;SDS011;3968;51.424;6.788;2022-08-21T01:36:32;11.30;;;6.40;;
7845;SDS011;3968;51.424;6.788;2022-08-21T01:38:58;14.63;;;6.53;;
7845;SDS011;3968;51.424;6.788;2022-08-21T01:41:24;10.75;;;6.45;;
7845;SDS011;3968;51.424;6.788;2022-08-21T01:43:50;13.13;;;7.07;;
7845;SDS011;3968;51.424;6.788;2022-08-21T01:46:16;11.67;;;7.03;;
7845;SDS011;3968;51.424;6.788;2022-08-21T01:48:41;10.77;;;6.67;;
7845;SDS011;3968;51.424;6.788;2022-08-21T01:51:07;15.40;;;7.17;;
7845;SDS011;3968;51.424;6.788;2022-08-21T01:53:34;9.13;;;6.87;;
7845;SDS011;3968;51.424;6.788;2022-08-21T01:56:02;10.33;;;7.10;;
7845;SDS011;3968;51.424;6.788;2022-08-21T01:58:29;12.47;;;7.10;;
7845;SDS011;3968;51.424;6.788;2022-08-21T02:00:55;13.07;;;6.87;;
7845;SDS011;3968;51.424;6.788;2022-08-21T02:03:20;12.73;;;6.70;;
7845;SDS011;3968;51.424;6.788;2022-08-21T02:05:46;10.60;;;7.53;;
7845;SDS011;3968;51.424;6.788;2022-08-21T02:08:12;11.47;;;7.17;;
7845;SDS011;3968;51.424;6.788;2022-08-21T02:10:37;11.30;;;7.17;;
7845;SDS011;3968;51.424;6.788;2022-08-21T02:13:03;16.27;;;7.10;;
7845;SDS011;3968;51.424;6.788;2022-08-21T02:15:30;15.57;;;6.67;;
7845;SDS011;3968;51.424;6.788;2022-08-21T02:17:58;14.93;;;7.07;;
7845;SDS011;3968;51.424;6.788;2022-08-21T02:20:31;14.43;;;6.60;;
7845;SDS011;3968;51.424;6.788;2022-08-21T02:23:05;12.10;;;6.90;;
7845;SDS011;3968;51.424;6.788;2022-08-21T02:25:32;12.17;;;6.53;;
7845;SDS011;3968;51.424;6.788;2022-08-21T02:27:59;12.63;;;6.73;;
7845;SDS011;3968;51.424;6.788;2022-08-21T02:30:31;10.27;;;6.60;;
7845;SDS011;3968;51.424;6.788;2022-08-21T02:33:00;10.87;;;7.13;;
7845;SDS011;3968;51.424;6.788;2022-08-21T02:35:26;9.23;;;6.20;;
7845;SDS011;3968;51.424;6.788;2022-08-21T02:37:53;12.73;;;6.87;;
7845;SDS011;3968;51.424;6.788;2022-08-21T02:40:32;10.50;;;6.03;;
7845;SDS011;3968;51.424;6.788;2022-08-21T02:43:00;9.23;;;6.20;;
7845;SDS011;3968;51.424;6.788;2022-08-21T02:45:27;14.30;;;6.93;;
7845;SDS011;3968;51.424;6.788;2022-08-21T02:48:01;12.60;;;6.80;;
7845;SDS011;3968;51.424;6.788;2022-08-21T02:50:34;12.90;;;6.03;;
7845;SDS011;3968;51.424;6.788;2022-08-21T02:53:06;8.67;;;6.07;;
7845;SDS011;3968;51.424;6.788;2022-08-21T02:55:33;8.60;;;5.83;;
7845;SDS011;3968;51.424;6.788;2022-08-21T02:58:01;9.70;;;6.20;;
7845;SDS011;3968;51.424;6.788;2022-08-21T03:00:29;15.37;;;6.87;;
7845;SDS011;3968;51.424;6.788;2022-08-21T03:02:56;9.17;;;5.50;;
7845;SDS011;3968;51.424;6.788;2022-08-21T03:05:22;9.97;;;6.53;;
7845;SDS011;3968;51.424;6.788;2022-08-21T03:07:50;13.13;;;6.43;;
7845;SDS011;3968;51.424;6.788;2022-08-21T03:10:17;11.53;;;6.67;;
7845;SDS011;3968;51.424;6.788;2022-08-21T03:12:44;14.77;;;6.20;;
7845;SDS011;3968;51.424;6.788;2022-08-21T03:15:11;10.33;;;7.27;;
7845;SDS011;3968;51.424;6.788;2022-08-21T03:17:39;10.43;;;6.67;;
7845;SDS011;3968;51.424;6.788;2022-08-21T03:20:05;13.17;;;6.40;;
7845;SDS011;3968;51.424;6.788;2022-08-21T03:22:32;12.60;;;7.33;;
7845;SDS011;3968;51.424;6.788;2022-08-21T03:24:58;14.10;;;7.10;;
7845;SDS011;3968;51.424;6.788;2022-08-21T03:27:24;14.90;;;7.17;;
7845;SDS011;3968;51.424;6.788;2022-08-21T03:29:52;10.50;;;6.87;;
7845;SDS011;3968;51.424;6.788;2022-08-21T03:32:18;11.63;;;6.83;;
7845;SDS011;3968;51.424;6.788;2022-08-21T03:34:44;13.27;;;7.17;;
7845;SDS011;3968;51.424;6.788;2022-08-21T03:37:10;10.37;;;7.23;;
7845;SDS011;3968;51.424;6.788;2022-08-21T03:39:36;14.63;;;7.70;;
7845;SDS011;3968;51.424;6.788;2022-08-21T03:42:02;10.43;;;6.97;;
7845;SDS011;3968;51.424;6.788;2022-08-21T03:44:27;12.93;;;7.27;;
7845;SDS011;3968;51.424;6.788;2022-08-21T03:46:54;13.20;;;7.80;;
7845;SDS011;3968;51.424;6.788;2022-08-21T03:49:21;12.77;;;8.10;;
7845;SDS011;3968;51.424;6.788;2022-08-21T03:51:46;12.43;;;7.23;;
7845;SDS011;3968;51.424;6.788;2022-08-21T03:54:12;14.37;;;8.50;;
7845;SDS011;3968;51.424;6.788;2022-08-21T03:56:38;14.37;;;8.70;;
7845;SDS011;3968;51.424;6.788;2022-08-21T03:59:04;11.50;;;7.77;;
7845;SDS011;3968;51.424;6.788;2022-08-21T04:01:30;12.37;;;8.27;;
7845;SDS011;3968;51.424;6.788;2022-08-21T04:03:56;13.87;;;7.87;;
7845;SDS011;3968;51.424;6.788;2022-08-21T04:06:22;14.27;;;8.97;;
7845;SDS011;3968;51.424;6.788;2022-08-21T04:08:47;14.30;;;8.63;;
7845;SDS011;3968;51.424;6.788;2022-08-21T04:11:13;13.53;;;8.60;;
7845;SDS011;3968;51.424;6.788;2022-08-21T04:13:39;17.57;;;9.63;;
7845;SDS011;3968;51.424;6.788;2022-08-21T04:16:05;16.63;;;8.20;;
7845;SDS011;3968;51.424;6.788;2022-08-21T04:18:32;14.63;;;9.20;;
7845;SDS011;3968;51.424;6.788;2022-08-21T04:20:58;16.63;;;9.00;;
7845;SDS011;3968;51.424;6.788;2022-08-21T04:23:25;15.57;;;9.03;;
7845;SDS011;3968;51.424;6.788;2022-08-21T04:25:52;13.33;;;8.47;;
7845;SDS011;3968;51.424;6.788;2022-08-21T04:28:19;16.80;;;9.77;;
7845;SDS011;3968;51.424;6.788;2022-08-21T04:30:45;15.73;;;8.80;;
7845;SDS011;3968;51.424;6.788;2022-08-21T04:33:11;15.50;;;9.10;;
7845;SDS011;3968;51.424;6.788;2022-08-21T04:35:37;16.27;;;9.20;;
7845;SDS011;3968;51.424;6.788;2022-08-21T04:38:03;14.37;;;9.20;;
7845;SDS011;3968;51.424;6.788;2022-08-21T04:40:28;12.93;;;9.50;;
7845;SDS011;3968;51.424;6.788;2022-08-21T04:42:55;19.33;;;9.90;;
7845;SDS011;3968;51.424;6.788;2022-08-21T04:45:27;17.40;;;9.50;;
7845;SDS011;3968;51.424;6.788;2022-08-21T04:47:59;14.33;;;9.47;;
7845;SDS011;3968;51.424;6.788;2022-08-21T04:55:47;14.47;;;10.23;;
7845;SDS011;3968;51.424;6.788;2022-08-21T04:58:14;20.07;;;9.93;;
7845;SDS011;3968;51.424;6.788;2022-08-21T05:00:42;16.83;;;9.47;;
7845;SDS011;3968;51.424;6.788;2022-08-21T05:03:09;20.30;;;10.90;;
7845;SDS011;3968;51.424;6.788;2022-08-21T05:05:36;17.03;;;10.87;;
7845;SDS011;3968;51.424;6.788;2022-08-21T05:08:02;17.87;;;10.53;;
7845;SDS011;3968;51.424;6.788;2022-08-21T05:10:29;17.77;;;9.97;;
7845;SDS011;3968;51.424;6.788;2022-08-21T05:12:56;17.20;;;10.93;;
7845;SDS011;3968;51.424;6.788;2022-08-21T05:15:22;17.37;;;12.03;;
7845;SDS011;3968;51.424;6.788;2022-08-21T05:17:48;17.00;;;11.43;;
7845;SDS011;3968;51.424;6.788;2022-08-21T05:20:15;19.43;;;12.30;;
7845;SDS011;3968;51.424;6.788;2022-08-21T05:22:41;20.17;;;12.17;;
7845;SDS011;3968;51.424;6.788;2022-08-21T05:25:08;17.37;;;12.20;;
7845;SDS011;3968;51.424;6.788;2022-08-21T05:27:34;15.83;;;11.83;;
7845;SDS011;3968;51.424;6.788;2022-08-21T05:30:00;16.23;;;11.83;;
7845;SDS011;3968;51.424;6.788;2022-08-21T05:32:27;19.23;;;12.33;;
7845;SDS011;3968;51.424;6.788;2022-08-21T05:34:53;18.20;;;12.93;;
7845;SDS011;3968;51.424;6.788;2022-08-21T05:37:19;16.43;;;12.83;;
7845;SDS011;3968;51.424;6.788;2022-08-21T05:39:45;13.23;;;11.83;;
7845;SDS011;3968;51.424;6.788;2022-08-21T05:42:11;19.30;;;12.40;;
7845;SDS011;3968;51.424;6.788;2022-08-21T05:44:36;22.83;;;13.97;;
7845;SDS011;3968;51.424;6.788;2022-08-21T05:47:05;18.37;;;12.47;;
7845;SDS011;3968;51.424;6.788;2022-08-21T05:49:33;18.75;;;12.95;;
7845;SDS011;3968;51.424;6.788;2022-08-21T05:51:59;18.27;;;12.30;;
7845;SDS011;3968;51.424;6.788;2022-08-21T05:54:25;22.40;;;13.33;;
7845;SDS011;3968;51.424;6.788;2022-08-21T05:56:52;19.03;;;12.77;;
7845;SDS011;3968;51.424;6.788;2022-08-21T05:59:17;15.67;;;12.93;;
7845;SDS011;3968;51.424;6.788;2022-08-21T06:01:44;18.70;;;12.47;;
7845;SDS011;3968;51.424;6.788;2022-08-21T06:04:10;22.70;;;13.00;;
7845;SDS011;3968;51.424;6.788;2022-08-21T06:06:36;17.00;;;12.47;;
7845;SDS011;3968;51.424;6.788;2022-08-21T06:09:03;20.53;;;12.63;;
7845;SDS011;3968;51.424;6.788;2022-08-21T06:11:29;16.57;;;11.17;;
7845;SDS011;3968;51.424;6.788;2022-08-21T06:13:56;14.77;;;11.00;;
7845;SDS011;3968;51.424;6.788;2022-08-21T06:16:25;15.97;;;11.17;;
7845;SDS011;3968;51.424;6.788;2022-08-21T06:18:51;18.20;;;11.33;;
7845;SDS011;3968;51.424;6.788;2022-08-21T06:21:17;14.07;;;10.77;;
7845;SDS011;3968;51.424;6.788;2022-08-21T06:23:43;14.97;;;10.23;;
7845;SDS011;3968;51.424;6.788;2022-08-21T06:26:10;12.60;;;9.73;;
7845;SDS011;3968;51.424;6.788;2022-08-21T06:28:37;13.13;;;8.83;;
7845;SDS011;3968;51.424;6.788;2022-08-21T06:31:19;12.23;;;8.33;;
7845;SDS011;3968;51.424;6.788;2022-08-21T06:33:46;15.33;;;9.23;;
7845;SDS011;3968;51.424;6.788;2022-08-21T06:36:13;11.13;;;7.33;;
7845;SDS011;3968;51.424;6.788;2022-08-21T06:38:38;14.43;;;8.10;;
7845;SDS011;3968;51.424;6.788;2022-08-21T06:41:04;14.03;;;7.70;;
7845;SDS011;3968;51.424;6.788;2022-08-21T06:43:31;13.93;;;7.03;;
7845;SDS011;3968;51.424;6.788;2022-08-21T06:45:57;14.03;;;7.83;;
7845;SDS011;3968;51.424;6.788;2022-08-21T06:48:22;12.63;;;6.70;;
7845;SDS011;3968;51.424;6.788;2022-08-21T06:50:48;15.10;;;6.67;;
7845;SDS011;3968;51.424;6.788;2022-08-21T06:53:19;15.88;;;6.80;;
7845;SDS011;3968;51.424;6.788;2022-08-21T06:55:46;14.43;;;6.60;;
7845;SDS011;3968;51.424;6.788;2022-08-21T06:58:12;13.07;;;6.20;;
7845;SDS011;3968;51.424;6.788;2022-08-21T07:00:40;13.17;;;6.60;;
7845;SDS011;3968;51.424;6.788;2022-08-21T07:03:07;13.80;;;6.40;;
7845;SDS011;3968;51.424;6.788;2022-08-21T07:05:41;14.60;;;6.67;;
7845;SDS011;3968;51.424;6.788;2022-08-21T07:08:06;13.50;;;6.50;;
7845;SDS011;3968;51.424;6.788;2022-08-21T07:10:32;14.63;;;6.63;;
7845;SDS011;3968;51.424;6.788;2022-08-21T07:12:58;17.73;;;6.67;;
7845;SDS011;3968;51.424;6.788;2022-08-21T07:15:23;17.40;;;6.50;;
7845;SDS011;3968;51.424;6.788;2022-08-21T07:17:49;16.30;;;6.80;;
7845;SDS011;3968;51.424;6.788;2022-08-21T07:20:14;15.10;;;6.95;;
7845;SDS011;3968;51.424;6.788;2022-08-21T07:22:40;14.70;;;6.87;;
7845;SDS011;3968;51.424;6.788;2022-08-21T07:25:07;15.63;;;6.63;;
7845;SDS011;3968;51.424;6.788;2022-08-21T07:27:33;12.63;;;6.20;;
7845;SDS011;3968;51.424;6.788;2022-08-21T07:29:58;9.43;;;4.53;;
7845;SDS011;3968;51.424;6.788;2022-08-21T07:32:24;7.73;;;4.83;;
7845;SDS011;3968;51.424;6.788;2022-08-21T07:34:50;14.00;;;5.27;;
7845;SDS011;3968;51.424;6.788;2022-08-21T07:37:16;11.68;;;5.13;;
7845;SDS011;3968;51.424;6.788;2022-08-21T07:39:41;8.75;;;4.43;;
7845;SDS011;3968;51.424;6.788;2022-08-21T07:42:07;13.45;;;4.60;;
7845;SDS011;3968;51.424;6.788;2022-08-21T07:44:33;9.10;;;3.88;;
7845;SDS011;3968;51.424;6.788;2022-08-21T07:46:59;7.90;;;3.93;;
7845;SDS011;3968;51.424;6.788;2022-08-21T07:49:26;10.57;;;3.63;;
7845;SDS011;3968;51.424;6.788;2022-08-21T07:51:52;12.27;;;3.80;;
7845;SDS011;3968;51.424;6.788;2022-08-21T07:54:18;10.90;;;4.20;;
7845;SDS011;3968;51.424;6.788;2022-08-21T07:56:44;15.40;;;3.55;;
7845;SDS011;3968;51.424;6.788;2022-08-21T07:59:10;10.85;;;2.75;;
7845;SDS011;3968;51.424;6.788;2022-08-21T08:01:36;6.25;;;2.42;;
7845;SDS011;3968;51.424;6.788;2022-08-21T08:04:02;7.90;;;2.75;;
7845;SDS011;3968;51.424;6.788;2022-08-21T08:06:28;6.13;;;2.20;;
7845;SDS011;3968;51.424;6.788;2022-08-21T08:08:54;8.63;;;2.55;;
7845;SDS011;3968;51.424;6.788;2022-08-21T08:11:20;4.68;;;1.77;;
7845;SDS011;3968;51.424;6.788;2022-08-21T08:13:46;8.77;;;2.42;;
7845;SDS011;3968;51.424;6.788;2022-08-21T08:16:13;5.38;;;2.53;;
7845;SDS011;3968;51.424;6.788;2022-08-21T08:18:39;7.13;;;2.33;;
7845;SDS011;3968;51.424;6.788;2022-08-21T08:21:07;3.90;;;1.90;;
7845;SDS011;3968;51.424;6.788;2022-08-21T08:23:33;7.93;;;2.40;;
7845;SDS011;3968;51.424;6.788;2022-08-21T08:26:00;4.28;;;2.15;;
7845;SDS011;3968;51.424;6.788;2022-08-21T08:28:27;4.20;;;2.05;;
7845;SDS011;3968;51.424;6.788;2022-08-21T08:30:54;8.07;;;2.10;;
7845;SDS011;3968;51.424;6.788;2022-08-21T08:33:20;5.35;;;2.00;;
7845;SDS011;3968;51.424;6.788;2022-08-21T08:35:48;3.08;;;2.00;;
7845;SDS011;3968;51.424;6.788;2022-08-21T08:38:15;5.70;;;2.05;;
7845;SDS011;3968;51.424;6.788;2022-08-21T08:43:18;5.22;;;1.85;;
7845;SDS011;3968;51.424;6.788;2022-08-21T08:45:46;10.00;;;2.00;;
7845;SDS011;3968;51.424;6.788;2022-08-21T08:48:14;8.00;;;2.97;;
7845;SDS011;3968;51.424;6.788;2022-08-21T08:50:56;9.85;;;5.22;;
7845;SDS011;3968;51.424;6.788;2022-08-21T08:53:24;5.93;;;2.25;;
7845;SDS011;3968;51.424;6.788;2022-08-21T08:55:55;6.60;;;2.25;;
7845;SDS011;3968;51.424;6.788;2022-08-21T08:58:26;5.60;;;2.17;;
7845;SDS011;3968;51.424;6.788;2022-08-21T09:00:57;4.57;;;1.60;;
7845;SDS011;3968;51.424;6.788;2022-08-21T09:03:23;5.13;;;1.80;;
7845;SDS011;3968;51.424;6.788;2022-08-21T09:08:46;7.72;;;2.05;;
7845;SDS011;3968;51.424;6.788;2022-08-21T09:14:33;5.93;;;2.28;;
7845;SDS011;3968;51.424;6.788;2022-08-21T09:25:22;5.30;;;2.03;;
7845;SDS011;3968;51.424;6.788;2022-08-21T09:27:51;6.03;;;2.28;;
7845;SDS011;3968;51.424;6.788;2022-08-21T09:30:19;6.50;;;2.00;;
7845;SDS011;3968;51.424;6.788;2022-08-21T09:32:54;3.28;;;1.75;;
7845;SDS011;3968;51.424;6.788;2022-08-21T09:35:20;3.83;;;1.88;;
7845;SDS011;3968;51.424;6.788;2022-08-21T09:40:31;8.43;;;1.90;;
7845;SDS011;3968;51.424;6.788;2022-08-21T09:43:02;6.60;;;2.38;;
7845;SDS011;3968;51.424;6.788;2022-08-21T09:45:31;4.88;;;2.00;;
7845;SDS011;3968;51.424;6.788;2022-08-21T09:50:48;6.57;;;2.42;;
7845;SDS011;3968;51.424;6.788;2022-08-21T09:53:25;4.60;;;1.80;;
7845;SDS011;3968;51.424;6.788;2022-08-21T09:55:54;5.40;;;1.70;;
7845;SDS011;3968;51.424;6.788;2022-08-21T09:58:45;4.35;;;1.55;;
7845;SDS011;3968;51.424;6.788;2022-08-21T10:01:15;4.97;;;2.00;;
7845;SDS011;3968;51.424;6.788;2022-08-21T10:03:46;5.35;;;1.80;;
7845;SDS011;3968;51.424;6.788;2022-08-21T10:06:26;3.70;;;1.52;;
7845;SDS011;3968;51.424;6.788;2022-08-21T10:09:09;4.70;;;1.63;;
7845;SDS011;3968;51.424;6.788;2022-08-21T10:11:38;5.03;;;1.75;;
7845;SDS011;3968;51.424;6.788;2022-08-21T10:14:12;4.43;;;1.60;;
7845;SDS011;3968;51.424;6.788;2022-08-21T10:30:32;3.45;;;1.80;;
7845;SDS011;3968;51.424;6.788;2022-08-21T10:33:16;4.85;;;2.20;;
7845;SDS011;3968;51.424;6.788;2022-08-21T10:39:18;6.15;;;2.15;;
7845;SDS011;3968;51.424;6.788;2022-08-21T10:47:35;6.80;;;2.22;;
7845;SDS011;3968;51.424;6.788;2022-08-21T10:50:17;2.85;;;1.42;;
7845;SDS011;3968;51.424;6.788;2022-08-21T10:55:41;8.60;;;2.20;;
7845;SDS011;3968;51.424;6.788;2022-08-21T10:58:14;7.38;;;2.22;;
7845;SDS011;3968;51.424;6.788;2022-08-21T11:01:05;4.47;;;1.95;;
7845;SDS011;3968;51.424;6.788;2022-08-21T11:03:42;4.38;;;2.10;;
7845;SDS011;3968;51.424;6.788;2022-08-21T11:06:13;6.93;;;2.28;;
7845;SDS011;3968;51.424;6.788;2022-08-21T11:08:44;4.80;;;1.70;;
7845;SDS011;3968;51.424;6.788;2022-08-21T11:11:20;5.20;;;1.85;;
7845;SDS011;3968;51.424;6.788;2022-08-21T11:14:13;7.95;;;1.77;;
7845;SDS011;3968;51.424;6.788;2022-08-21T11:16:50;6.43;;;1.80;;
7845;SDS011;3968;51.424;6.788;2022-08-21T11:19:28;5.70;;;1.73;;
7845;SDS011;3968;51.424;6.788;2022-08-21T11:24:39;2.65;;;1.30;;
7845;SDS011;3968;51.424;6.788;2022-08-21T11:29:55;5.28;;;1.83;;
7845;SDS011;3968;51.424;6.788;2022-08-21T11:49:31;2.42;;;1.60;;
7845;SDS011;3968;51.424;6.788;2022-08-21T11:52:24;3.58;;;1.70;;
7845;SDS011;3968;51.424;6.788;2022-08-21T11:55:03;3.30;;;1.70;;
7845;SDS011;3968;51.424;6.788;2022-08-21T11:57:46;5.22;;;2.03;;
7845;SDS011;3968;51.424;6.788;2022-08-21T12:00:22;3.78;;;1.50;;
7845;SDS011;3968;51.424;6.788;2022-08-21T12:02:56;4.82;;;1.52;;
7845;SDS011;3968;51.424;6.788;2022-08-21T12:05:33;6.40;;;1.52;;
7845;SDS011;3968;51.424;6.788;2022-08-21T12:08:45;4.80;;;1.40;;
7845;SDS011;3968;51.424;6.788;2022-08-21T12:11:08;5.18;;;1.42;;
7845;SDS011;3968;51.424;6.788;2022-08-21T12:13:36;2.75;;;1.40;;
7845;SDS011;3968;51.424;6.788;2022-08-21T12:16:06;4.55;;;1.42;;
7845;SDS011;3968;51.424;6.788;2022-08-21T12:18:40;2.85;;;1.20;;
7845;SDS011;3968;51.424;6.788;2022-08-21T12:21:17;4.50;;;1.90;;
7845;SDS011;3968;51.424;6.788;2022-08-21T12:23:49;2.58;;;1.40;;
7845;SDS011;3968;51.424;6.788;2022-08-21T12:26:35;5.47;;;2.88;;
7845;SDS011;3968;51.424;6.788;2022-08-21T12:29:16;7.63;;;1.83;;
7845;SDS011;3968;51.424;6.788;2022-08-21T12:31:59;2.45;;;1.50;;
7845;SDS011;3968;51.424;6.788;2022-08-21T12:34:44;2.75;;;1.35;;
7845;SDS011;3968;51.424;6.788;2022-08-21T12:37:15;3.08;;;1.40;;
7845;SDS011;3968;51.424;6.788;2022-08-21T12:39:46;4.28;;;2.03;;
7845;SDS011;3968;51.424;6.788;2022-08-21T12:42:18;6.70;;;1.42;;
7845;SDS011;3968;51.424;6.788;2022-08-21T12:44:54;6.13;;;1.95;;
7845;SDS011;3968;51.424;6.788;2022-08-21T12:47:34;6.00;;;2.35;;
7845;SDS011;3968;51.424;6.788;2022-08-21T12:50:11;3.35;;;1.98;;
7845;SDS011;3968;51.424;6.788;2022-08-21T12:52:45;3.30;;;1.30;;
7845;SDS011;3968;51.424;6.788;2022-08-21T12:55:25;3.63;;;1.95;;
7845;SDS011;3968;51.424;6.788;2022-08-21T12:57:53;4.32;;;2.17;;
7845;SDS011;3968;51.424;6.788;2022-08-21T13:00:20;4.30;;;1.50;;
7845;SDS011;3968;51.424;6.788;2022-08-21T13:02:49;2.25;;;1.25;;
7845;SDS011;3968;51.424;6.788;2022-08-21T13:05:23;2.80;;;1.73;;
7845;SDS011;3968;51.424;6.788;2022-08-21T13:07:50;4.18;;;1.83;;
7845;SDS011;3968;51.424;6.788;2022-08-21T13:10:34;5.53;;;1.35;;
7845;SDS011;3968;51.424;6.788;2022-08-21T13:13:19;4.47;;;1.30;;
7845;SDS011;3968;51.424;6.788;2022-08-21T13:15:46;4.63;;;1.45;;
7845;SDS011;3968;51.424;6.788;2022-08-21T13:18:23;2.53;;;1.50;;
7845;SDS011;3968;51.424;6.788;2022-08-21T13:20:50;3.45;;;1.30;;
7845;SDS011;3968;51.424;6.788;2022-08-21T13:23:24;2.67;;;1.30;;
7845;SDS011;3968;51.424;6.788;2022-08-21T13:25:55;3.40;;;1.63;;
7845;SDS011;3968;51.424;6.788;2022-08-21T13:28:21;6.30;;;1.42;;
7845;SDS011;3968;51.424;6.788;2022-08-21T13:30:49;2.88;;;1.48;;
7845;SDS011;3968;51.424;6.788;2022-08-21T13:33:17;3.53;;;1.35;;
7845;SDS011;3968;51.424;6.788;2022-08-21T13:35:57;5.50;;;1.55;;
7845;SDS011;3968;51.424;6.788;2022-08-21T13:38:33;3.40;;;1.55;;
7845;SDS011;3968;51.424;6.788;2022-08-21T13:43:44;5.63;;;1.60;;
7845;SDS011;3968;51.424;6.788;2022-08-21T13:46:14;4.32;;;1.88;;
7845;SDS011;3968;51.424;6.788;2022-08-21T13:48:40;4.32;;;1.60;;
7845;SDS011;3968;51.424;6.788;2022-08-21T13:51:08;2.03;;;1.10;;
7845;SDS011;3968;51.424;6.788;2022-08-21T13:56:06;5.63;;;1.92;;
7845;SDS011;3968;51.424;6.788;2022-08-21T13:58:45;2.92;;;1.73;;
7845;SDS011;3968;51.424;6.788;2022-08-21T14:01:31;3.78;;;1.58;;
7845;SDS011;3968;51.424;6.788;2022-08-21T14:04:02;4.18;;;1.35;;
7845;SDS011;3968;51.424;6.788;2022-08-21T14:06:44;5.20;;;1.48;;
7845;SDS011;3968;51.424;6.788;2022-08-21T14:09:31;4.10;;;1.40;;
7845;SDS011;3968;51.424;6.788;2022-08-21T14:12:23;3.72;;;1.60;;
7845;SDS011;3968;51.424;6.788;2022-08-21T14:14:53;2.50;;;1.20;;
7845;SDS011;3968;51.424;6.788;2022-08-21T14:17:34;4.30;;;1.50;;
7845;SDS011;3968;51.424;6.788;2022-08-21T14:20:06;4.00;;;1.30;;
7845;SDS011;3968;51.424;6.788;2022-08-21T14:25:06;4.82;;;1.80;;
7845;SDS011;3968;51.424;6.788;2022-08-21T14:27:48;3.65;;;1.50;;
7845;SDS011;3968;51.424;6.788;2022-08-21T14:30:28;2.58;;;1.63;;
7845;SDS011;3968;51.424;6.788;2022-08-21T14:33:03;3.72;;;1.55;;
7845;SDS011;3968;51.424;6.788;2022-08-21T14:35:34;3.92;;;1.77;;
7845;SDS011;3968;51.424;6.788;2022-08-21T14:37:59;6.07;;;1.92;;
7845;SDS011;3968;51.424;6.788;2022-08-21T14:40:25;5.75;;;1.95;;
7845;SDS011;3968;51.424;6.788;2022-08-21T14:42:51;3.38;;;1.83;;
7845;SDS011;3968;51.424;6.788;2022-08-21T14:45:29;6.72;;;1.50;;
7845;SDS011;3968;51.424;6.788;2022-08-21T14:47:56;4.55;;;1.52;;
7845;SDS011;3968;51.424;6.788;2022-08-21T14:50:23;4.07;;;1.95;;
7845;SDS011;3968;51.424;6.788;2022-08-21T14:52:49;4.03;;;1.70;;
7845;SDS011;3968;51.424;6.788;2022-08-21T14:55:15;5.10;;;1.80;;
7845;SDS011;3968;51.424;6.788;2022-08-21T14:57:46;3.78;;;1.55;;
7845;SDS011;3968;51.424;6.788;2022-08-21T15:00:14;4.55;;;1.90;;
7845;SDS011;3968;51.424;6.788;2022-08-21T15:02:44;5.25;;;1.80;;
7845;SDS011;3968;51.424;6.788;2022-08-21T15:05:11;3.38;;;1.70;;
7845;SDS011;3968;51.424;6.788;2022-08-21T15:07:38;5.53;;;1.92;;
7845;SDS011;3968;51.424;6.788;2022-08-21T15:10:04;4.97;;;2.00;;
7845;SDS011;3968;51.424;6.788;2022-08-21T15:12:31;6.30;;;2.10;;
7845;SDS011;3968;51.424;6.788;2022-08-21T15:14:57;4.53;;;1.60;;
7845;SDS011;3968;51.424;6.788;2022-08-21T15:17:23;6.25;;;1.77;;
7845;SDS011;3968;51.424;6.788;2022-08-21T15:19:49;3.92;;;2.10;;
7845;SDS011;3968;51.424;6.788;2022-08-21T15:22:15;3.47;;;1.70;;
7845;SDS011;3968;51.424;6.788;2022-08-21T15:24:41;8.43;;;1.65;;
7845;SDS011;3968;51.424;6.788;2022-08-21T15:27:07;4.90;;;1.60;;
7845;SDS011;3968;51.424;6.788;2022-08-21T15:29:34;6.55;;;1.73;;
7845;SDS011;3968;51.424;6.788;2022-08-21T15:32:00;4.38;;;1.45;;
7845;SDS011;3968;51.424;6.788;2022-08-21T15:34:29;4.38;;;1.80;;
7845;SDS011;3968;51.424;6.788;2022-08-21T15:36:56;4.47;;;1.63;;
7845;SDS011;3968;51.424;6.788;2022-08-21T15:39:23;4.03;;;1.50;;
7845;SDS011;3968;51.424;6.788;2022-08-21T15:41:50;5.38;;;1.90;;
7845;SDS011;3968;51.424;6.788;2022-08-21T15:44:16;7.13;;;2.13;;
7845;SDS011;3968;51.424;6.788;2022-08-21T15:46:41;5.07;;;1.95;;
7845;SDS011;3968;51.424;6.788;2022-08-21T15:49:09;3.47;;;1.80;;
7845;SDS011;3968;51.424;6.788;2022-08-21T15:51:35;6.10;;;2.03;;
7845;SDS011;3968;51.424;6.788;2022-08-21T15:54:01;8.05;;;2.00;;
7845;SDS011;3968;51.424;6.788;2022-08-21T15:56:31;5.72;;;1.70;;
7845;SDS011;3968;51.424;6.788;2022-08-21T15:59:06;4.47;;;1.77;;
7845;SDS011;3968;51.424;6.788;2022-08-21T16:01:37;4.20;;;1.77;;
7845;SDS011;3968;51.424;6.788;2022-08-21T16:04:03;2.95;;;1.60;;
7845;SDS011;3968;51.424;6.788;2022-08-21T16:06:30;3.15;;;1.60;;
7845;SDS011;3968;51.424;6.788;2022-08-21T16:08:55;3.25;;;1.50;;
7845;SDS011;3968;51.424;6.788;2022-08-21T16:11:21;6.68;;;3.65;;
7845;SDS011;3968;51.424;6.788;2022-08-21T16:13:47;5.15;;;2.25;;
7845;SDS011;3968;51.424;6.788;2022-08-21T16:16:18;4.53;;;3.00;;
7845;SDS011;3968;51.424;6.788;2022-08-21T16:18:46;6.43;;;1.92;;
7845;SDS011;3968;51.424;6.788;2022-08-21T16:21:12;3.38;;;1.73;;
7845;SDS011;3968;51.424;6.788;2022-08-21T16:23:38;6.95;;;2.50;;
7845;SDS011;3968;51.424;6.788;2022-08-21T16:26:05;4.28;;;2.38;;
7845;SDS011;3968;51.424;6.788;2022-08-21T16:28:33;7.50;;;3.25;;
7845;SDS011;3968;51.424;6.788;2022-08-21T16:31:01;5.72;;;1.95;;
7845;SDS011;3968;51.424;6.788;2022-08-21T16:33:41;5.55;;;2.58;;
7845;SDS011;3968;51.424;6.788;2022-08-21T16:36:13;2.60;;;1.58;;
7845;SDS011;3968;51.424;6.788;2022-08-21T16:38:39;5.50;;;2.30;;
7845;SDS011;3968;51.424;6.788;2022-08-21T16:41:07;5.35;;;2.33;;
7845;SDS011;3968;51.424;6.788;2022-08-21T16:43:36;4.25;;;1.75;;